sensor_id;sensor_type;location;lat;lon;timestamp;pressure;altitude;pressure_sealevel;temperature;humidity
71764;BME280;59602;52.142;5.408;2023-10-09T00:01:04;102115.44;;;14.27;100.00
71764;BME280;59602;52.142;5.408;2023-10-09T00:03:40;102124.44;;;14.28;100.00
71764;BME280;59602;52.142;5.408;2023-10-09T00:06:08;102115.84;;;14.29;100.00
71764;BME280;59602;52.142;5.408;2023-10-09T00:08:39;102110.38;;;14.29;100.00
71764;BME280;59602;52.142;5.408;2023-10-09T00:11:11;102105.28;;;14.28;100.00
71764;BME280;59602;52.142;5.408;2023-10-09T00:13:44;102108.44;;;14.30;100.00
71764;BME280;59602;52.142;5.408;2023-10-09T00:16:20;102106.47;;;14.30;100.00
71764;BME280;59602;52.142;5.408;2023-10-09T00:19:05;102105.34;;;14.31;100.00
71764;BME280;59602;52.142;5.408;2023-10-09T00:21:44;102101.41;;;14.32;100.00
71764;BME280;59602;52.142;5.408;2023-10-09T00:24:11;102104.16;;;14.32;100.00
71764;BME280;59602;52.142;5.408;2023-10-09T00:26:42;102097.94;;;14.36;100.00
71764;BME280;59602;52.142;5.408;2023-10-09T00:29:12;102100.69;;;14.36;100.00
71764;BME280;59602;52.142;5.408;2023-10-09T00:31:51;102111.63;;;14.36;100.00
71764;BME280;59602;52.142;5.408;2023-10-09T00:34:22;102115.16;;;14.36;100.00
71764;BME280;59602;52.142;5.408;2023-10-09T00:36:52;102115.16;;;14.40;100.00
71764;BME280;59602;52.142;5.408;2023-10-09T00:39:21;102109.75;;;14.43;100.00
71764;BME280;59602;52.142;5.408;2023-10-09T00:42:07;102115.63;;;14.45;100.00
71764;BME280;59602;52.142;5.408;2023-10-09T00:44:34;102111.38;;;14.48;100.00
71764;BME280;59602;52.142;5.408;2023-10-09T00:47:10;102109.81;;;14.50;100.00
71764;BME280;59602;52.142;5.408;2023-10-09T00:49:50;102106.31;;;14.50;100.00
71764;BME280;59602;52.142;5.408;2023-10-09T00:52:26;102106.31;;;14.50;100.00
71764;BME280;59602;52.142;5.408;2023-10-09T00:55:00;102099.66;;;14.51;100.00
71764;BME280;59602;52.142;5.408;2023-10-09T00:57:31;102094.19;;;14.51;100.00
71764;BME280;59602;52.142;5.408;2023-10-09T01:00:04;102095.00;;;14.51;100.00
71764;BME280;59602;52.142;5.408;2023-10-09T01:02:51;102095.41;;;14.53;100.00
71764;BME280;59602;52.142;5.408;2023-10-09T01:05:37;102084.81;;;14.52;100.00
71764;BME280;59602;52.142;5.408;2023-10-09T01:08:05;102085.59;;;14.52;100.00
71764;BME280;59602;52.142;5.408;2023-10-09T01:10:46;102071.56;;;14.54;100.00
71764;BME280;59602;52.142;5.408;2023-10-09T01:13:18;102078.63;;;14.55;100.00
71764;BME280;59602;52.142;5.408;2023-10-09T01:15:45;102079.03;;;14.57;100.00
71764;BME280;59602;52.142;5.408;2023-10-09T01:18:12;102074.34;;;14.58;100.00
71764;BME280;59602;52.142;5.408;2023-10-09T01:20:39;102073.19;;;14.59;100.00
71764;BME280;59602;52.142;5.408;2023-10-09T01:23:12;102073.19;;;14.59;100.00
71764;BME280;59602;52.142;5.408;2023-10-09T01:25:38;102070.88;;;14.61;100.00
71764;BME280;59602;52.142;5.408;2023-10-09T01:28:10;102067.34;;;14.60;100.00
71764;BME280;59602;52.142;5.408;2023-10-09T01:30:36;102069.69;;;14.62;100.00
71764;BME280;59602;52.142;5.408;2023-10-09T01:33:09;102074.78;;;14.63;100.00
71764;BME280;59602;52.142;5.408;2023-10-09T01:35:48;102068.94;;;14.65;100.00
71764;BME280;59602;52.142;5.408;2023-10-09T01:38:17;102063.88;;;14.67;100.00
71764;BME280;59602;52.142;5.408;2023-10-09T01:40:43;102075.63;;;14.67;100.00
71764;BME280;59602;52.142;5.408;2023-10-09T01:43:11;102057.22;;;14.68;100.00
71764;BME280;59602;52.142;5.408;2023-10-09T01:45:38;102052.16;;;14.70;100.00
71764;BME280;59602;52.142;5.408;2023-10-09T01:48:13;102056.88;;;14.69;100.00
71764;BME280;59602;52.142;5.408;2023-10-09T01:50:45;102040.44;;;14.69;100.00
71764;BME280;59602;52.142;5.408;2023-10-09T01:53:14;102056.06;;;14.69;100.00
71764;BME280;59602;52.142;5.408;2023-10-09T01:55:44;102054.13;;;14.69;100.00
71764;BME280;59602;52.142;5.408;2023-10-09T01:58:12;102048.66;;;14.69;100.00
71764;BME280;59602;52.142;5.408;2023-10-09T02:00:46;102040.44;;;14.69;100.00
71764;BME280;59602;52.142;5.408;2023-10-09T02:03:15;102032.22;;;14.69;100.00
71764;BME280;59602;52.142;5.408;2023-10-09T02:05:42;102038.47;;;14.70;100.00
71764;BME280;59602;52.142;5.408;2023-10-09T02:08:09;102043.97;;;14.70;100.00
71764;BME280;59602;52.142;5.408;2023-10-09T02:10:37;102037.28;;;14.67;100.00
71764;BME280;59602;52.142;5.408;2023-10-09T02:13:06;102026.34;;;14.67;100.00
71764;BME280;59602;52.142;5.408;2023-10-09T02:15:36;102029.84;;;14.68;100.00
71764;BME280;59602;52.142;5.408;2023-10-09T02:18:15;102022.81;;;14.67;100.00
71764;BME280;59602;52.142;5.408;2023-10-09T02:20:45;102019.28;;;14.66;100.00
71764;BME280;59602;52.142;5.408;2023-10-09T02:23:12;102022.41;;;14.65;100.00
71764;BME280;59602;52.142;5.408;2023-10-09T02:25:42;102012.19;;;14.62;100.00
71764;BME280;59602;52.142;5.408;2023-10-09T02:28:10;102007.91;;;14.61;100.00
71764;BME280;59602;52.142;5.408;2023-10-09T02:30:44;102004.75;;;14.59;100.00
71764;BME280;59602;52.142;5.408;2023-10-09T02:33:15;102010.22;;;14.59;100.00
71764;BME280;59602;52.142;5.408;2023-10-09T02:35:54;102012.59;;;14.60;100.00
71764;BME280;59602;52.142;5.408;2023-10-09T02:38:21;102005.91;;;14.58;100.00
71764;BME280;59602;52.142;5.408;2023-10-09T02:40:50;102008.22;;;14.56;100.00
71764;BME280;59602;52.142;5.408;2023-10-09T02:43:30;102003.97;;;14.58;100.00
71764;BME280;59602;52.142;5.408;2023-10-09T02:46:01;102003.59;;;14.60;100.00
71764;BME280;59602;52.142;5.408;2023-10-09T02:48:40;102003.59;;;14.60;100.00
71764;BME280;59602;52.142;5.408;2023-10-09T02:51:26;101992.25;;;14.61;100.00
71764;BME280;59602;52.142;5.408;2023-10-09T02:53:55;101984.84;;;14.62;100.00
71764;BME280;59602;52.142;5.408;2023-10-09T02:56:24;101990.31;;;14.62;100.00
71764;BME280;59602;52.142;5.408;2023-10-09T02:59:02;101985.25;;;14.64;100.00
71764;BME280;59602;52.142;5.408;2023-10-09T03:01:34;101978.63;;;14.65;100.00
71764;BME280;59602;52.142;5.408;2023-10-09T03:04:01;101975.88;;;14.65;100.00
71764;BME280;59602;52.142;5.408;2023-10-09T03:06:29;101973.91;;;14.65;100.00
71764;BME280;59602;52.142;5.408;2023-10-09T03:08:58;101967.66;;;14.65;100.00
71764;BME280;59602;52.142;5.408;2023-10-09T03:11:25;101974.31;;;14.67;100.00
71764;BME280;59602;52.142;5.408;2023-10-09T03:13:53;101974.31;;;14.67;100.00
71764;BME280;59602;52.142;5.408;2023-10-09T03:16:21;101970.81;;;14.70;100.00
71764;BME280;59602;52.142;5.408;2023-10-09T03:18:51;101968.09;;;14.70;100.00
71764;BME280;59602;52.142;5.408;2023-10-09T03:21:19;101965.34;;;14.70;100.00
71764;BME280;59602;52.142;5.408;2023-10-09T03:23:47;101968.09;;;14.70;100.00
71764;BME280;59602;52.142;5.408;2023-10-09T03:26:22;101974.75;;;14.73;100.00
71764;BME280;59602;52.142;5.408;2023-10-09T03:28:51;101964.97;;;14.72;100.00
71764;BME280;59602;52.142;5.408;2023-10-09T03:31:20;101973.19;;;14.76;100.00
71764;BME280;59602;52.142;5.408;2023-10-09T03:33:48;101976.75;;;14.76;100.00
71764;BME280;59602;52.142;5.408;2023-10-09T03:36:15;101970.84;;;14.74;100.00
71764;BME280;59602;52.142;5.408;2023-10-09T03:38:43;101963.41;;;14.74;100.00
71764;BME280;59602;52.142;5.408;2023-10-09T03:41:10;101959.50;;;14.76;100.00
71764;BME280;59602;52.142;5.408;2023-10-09T03:43:42;101964.97;;;14.76;100.00
71764;BME280;59602;52.142;5.408;2023-10-09T03:46:10;101987.69;;;14.80;100.00
71764;BME280;59602;52.142;5.408;2023-10-09T03:48:50;102005.72;;;14.81;100.00
71764;BME280;59602;52.142;5.408;2023-10-09T03:51:18;102009.25;;;14.81;100.00
71764;BME280;59602;52.142;5.408;2023-10-09T03:53:53;102017.09;;;14.83;100.00
71764;BME280;59602;52.142;5.408;2023-10-09T03:56:20;102011.63;;;14.86;100.00
71764;BME280;59602;52.142;5.408;2023-10-09T03:58:49;102012.44;;;14.90;100.00
71764;BME280;59602;52.142;5.408;2023-10-09T04:01:18;101997.97;;;14.93;100.00
71764;BME280;59602;52.142;5.408;2023-10-09T04:03:55;102002.69;;;14.97;100.00
71764;BME280;59602;52.142;5.408;2023-10-09T04:06:27;102003.09;;;14.99;100.00
71764;BME280;59602;52.142;5.408;2023-10-09T04:08:58;102009.00;;;15.01;100.00
71764;BME280;59602;52.142;5.408;2023-10-09T04:11:25;102004.69;;;15.03;100.00
71764;BME280;59602;52.142;5.408;2023-10-09T04:13:52;101999.63;;;15.05;100.00
71764;BME280;59602;52.142;5.408;2023-10-09T04:16:19;102004.72;;;15.07;100.00
71764;BME280;59602;52.142;5.408;2023-10-09T04:19:00;102006.69;;;15.10;100.00
71764;BME280;59602;52.142;5.408;2023-10-09T04:21:37;102003.97;;;15.13;100.00
71764;BME280;59602;52.142;5.408;2023-10-09T04:24:05;102007.53;;;15.18;100.00
71764;BME280;59602;52.142;5.408;2023-10-09T04:26:41;101999.31;;;15.18;100.00
71764;BME280;59602;52.142;5.408;2023-10-09T04:29:12;102000.88;;;15.22;100.00
71764;BME280;59602;52.142;5.408;2023-10-09T04:34:23;101980.56;;;15.27;100.00
71764;BME280;59602;52.142;5.408;2023-10-09T04:36:56;101972.75;;;15.29;100.00
71764;BME280;59602;52.142;5.408;2023-10-09T04:39:48;101975.88;;;15.31;100.00
71764;BME280;59602;52.142;5.408;2023-10-09T04:42:16;101979.81;;;15.33;100.00
71764;BME280;59602;52.142;5.408;2023-10-09T04:45:02;101985.72;;;15.39;100.00
71764;BME280;59602;52.142;5.408;2023-10-09T04:47:32;101985.75;;;15.43;100.00
71764;BME280;59602;52.142;5.408;2023-10-09T04:50:16;101979.13;;;15.47;100.00
71764;BME280;59602;52.142;5.408;2023-10-09T04:52:43;101974.41;;;15.51;100.00
71764;BME280;59602;52.142;5.408;2023-10-09T04:55:10;101971.69;;;15.55;100.00
71764;BME280;59602;52.142;5.408;2023-10-09T04:57:39;101974.06;;;15.56;100.00
71764;BME280;59602;52.142;5.408;2023-10-09T05:00:15;101968.97;;;15.59;100.00
71764;BME280;59602;52.142;5.408;2023-10-09T05:03:09;101980.72;;;15.59;100.00
71764;BME280;59602;52.142;5.408;2023-10-09T05:05:39;101981.13;;;15.61;100.00
71764;BME280;59602;52.142;5.408;2023-10-09T05:08:11;101967.41;;;15.65;100.00
71764;BME280;59602;52.142;5.408;2023-10-09T05:10:50;101986.22;;;15.66;100.00
71764;BME280;59602;52.142;5.408;2023-10-09T05:18:42;101999.59;;;15.75;100.00
71764;BME280;59602;52.142;5.408;2023-10-09T05:21:11;101997.25;;;15.77;100.00
71764;BME280;59602;52.142;5.408;2023-10-09T05:23:39;102010.19;;;15.80;100.00
71764;BME280;59602;52.142;5.408;2023-10-09T05:26:24;102017.25;;;15.85;100.00
71764;BME280;59602;52.142;5.408;2023-10-09T05:29:10;102016.88;;;15.86;100.00
71764;BME280;59602;52.142;5.408;2023-10-09T05:31:46;102033.75;;;15.88;100.00
71764;BME280;59602;52.142;5.408;2023-10-09T05:34:34;102032.56;;;15.93;100.00
71764;BME280;59602;52.142;5.408;2023-10-09T05:37:04;102017.69;;;15.97;100.00
71764;BME280;59602;52.142;5.408;2023-10-09T05:39:53;102030.25;;;15.98;100.00
71764;BME280;59602;52.142;5.408;2023-10-09T05:42:30;102029.84;;;16.00;100.00
71764;BME280;59602;52.142;5.408;2023-10-09T05:45:05;102033.78;;;16.03;100.00
71764;BME280;59602;52.142;5.408;2023-10-09T05:47:55;102036.13;;;16.04;100.00
71764;BME280;59602;52.142;5.408;2023-10-09T05:50:32;102044.00;;;16.06;100.00
71764;BME280;59602;52.142;5.408;2023-10-09T05:53:01;102041.66;;;16.08;100.00
71764;BME280;59602;52.142;5.408;2023-10-09T05:55:29;102040.09;;;16.10;100.00
71764;BME280;59602;52.142;5.408;2023-10-09T05:58:14;102050.66;;;16.12;100.00
71764;BME280;59602;52.142;5.408;2023-10-09T06:00:59;102037.34;;;16.14;100.00
71764;BME280;59602;52.142;5.408;2023-10-09T06:03:46;102043.63;;;16.14;100.00
71764;BME280;59602;52.142;5.408;2023-10-09T06:06:15;102006.75;;;16.15;100.00
71764;BME280;59602;52.142;5.408;2023-10-09T06:09:04;101991.50;;;16.14;100.00
71764;BME280;59602;52.142;5.408;2023-10-09T06:11:41;101986.00;;;16.14;100.00
71764;BME280;59602;52.142;5.408;2023-10-09T06:14:17;102000.09;;;16.13;100.00
71764;BME280;59602;52.142;5.408;2023-10-09T06:17:12;102001.28;;;16.15;100.00
71764;BME280;59602;52.142;5.408;2023-10-09T06:19:39;102015.41;;;16.17;100.00
71764;BME280;59602;52.142;5.408;2023-10-09T06:22:10;102016.56;;;16.20;100.00
71764;BME280;59602;52.142;5.408;2023-10-09T06:24:39;101999.72;;;16.22;100.00
71764;BME280;59602;52.142;5.408;2023-10-09T06:27:10;102000.88;;;16.21;100.00
71764;BME280;59602;52.142;5.408;2023-10-09T06:29:39;101991.50;;;16.22;100.00
71764;BME280;59602;52.142;5.408;2023-10-09T06:32:15;101987.16;;;16.21;100.00
71764;BME280;59602;52.142;5.408;2023-10-09T06:34:54;102000.09;;;16.20;100.00
71764;BME280;59602;52.142;5.408;2023-10-09T06:37:43;102003.25;;;16.22;100.00
71764;BME280;59602;52.142;5.408;2023-10-09T06:43:14;102022.84;;;16.24;100.00
71764;BME280;59602;52.142;5.408;2023-10-09T06:45:51;102049.94;;;16.26;100.00
71764;BME280;59602;52.142;5.408;2023-10-09T06:48:29;102040.50;;;16.27;100.00
71764;BME280;59602;52.142;5.408;2023-10-09T06:51:03;102041.28;;;16.27;100.00
71764;BME280;59602;52.142;5.408;2023-10-09T06:53:42;102047.59;;;16.28;100.00
71764;BME280;59602;52.142;5.408;2023-10-09T06:56:27;102050.72;;;16.30;100.00
71764;BME280;59602;52.142;5.408;2023-10-09T06:59:00;102048.75;;;16.30;100.00
71764;BME280;59602;52.142;5.408;2023-10-09T07:01:51;102030.72;;;16.33;100.00
71764;BME280;59602;52.142;5.408;2023-10-09T07:04:38;102042.88;;;16.35;100.00
71764;BME280;59602;52.142;5.408;2023-10-09T07:07:05;102038.94;;;16.36;100.00
71764;BME280;59602;52.142;5.408;2023-10-09T07:09:44;102040.16;;;16.39;100.00
71764;BME280;59602;52.142;5.408;2023-10-09T07:12:33;102037.81;;;16.41;100.00
71764;BME280;59602;52.142;5.408;2023-10-09T07:15:00;102031.50;;;16.40;100.00
71764;BME280;59602;52.142;5.408;2023-10-09T07:17:28;102055.06;;;16.42;100.00
71764;BME280;59602;52.142;5.408;2023-10-09T07:19:59;102037.81;;;16.41;100.00
71764;BME280;59602;52.142;5.408;2023-10-09T07:23:03;102038.97;;;16.44;100.00
71764;BME280;59602;52.142;5.408;2023-10-09T07:25:41;102024.06;;;16.45;100.00
71764;BME280;59602;52.142;5.408;2023-10-09T07:28:10;102017.41;;;16.46;100.00
71764;BME280;59602;52.142;5.408;2023-10-09T07:30:56;101997.78;;;16.47;100.00
71764;BME280;59602;52.142;5.408;2023-10-09T07:33:24;101989.53;;;16.47;100.00
71764;BME280;59602;52.142;5.408;2023-10-09T07:36:01;101969.94;;;16.49;100.00
71764;BME280;59602;52.142;5.408;2023-10-09T07:38:32;101967.97;;;16.49;100.00
71764;BME280;59602;52.142;5.408;2023-10-09T07:41:02;101958.16;;;16.52;100.00
71764;BME280;59602;52.142;5.408;2023-10-09T07:43:37;101980.53;;;16.54;100.00
71764;BME280;59602;52.142;5.408;2023-10-09T07:46:06;101998.16;;;16.56;100.00
71764;BME280;59602;52.142;5.408;2023-10-09T07:48:51;102007.63;;;16.59;100.00
71764;BME280;59602;52.142;5.408;2023-10-09T07:51:21;102021.31;;;16.63;100.00
71764;BME280;59602;52.142;5.408;2023-10-09T07:53:59;102028.00;;;16.65;100.00
71764;BME280;59602;52.142;5.408;2023-10-09T07:56:38;102029.97;;;16.68;100.00
71764;BME280;59602;52.142;5.408;2023-10-09T07:59:08;102038.19;;;16.72;100.00
71764;BME280;59602;52.142;5.408;2023-10-09T08:01:41;102026.03;;;16.76;100.00
71764;BME280;59602;52.142;5.408;2023-10-09T08:04:29;102036.28;;;16.79;100.00
71764;BME280;59602;52.142;5.408;2023-10-09T08:07:16;102026.06;;;16.84;100.00
71764;BME280;59602;52.142;5.408;2023-10-09T08:10:12;102031.94;;;16.89;100.00
71764;BME280;59602;52.142;5.408;2023-10-09T08:12:41;102061.75;;;16.94;100.00
71764;BME280;59602;52.142;5.408;2023-10-09T08:15:16;102042.91;;;16.96;100.00
71764;BME280;59602;52.142;5.408;2023-10-09T08:17:56;102044.91;;;16.99;100.00
71764;BME280;59602;52.142;5.408;2023-10-09T08:20:30;102046.84;;;17.02;100.00
71764;BME280;59602;52.142;5.408;2023-10-09T08:23:17;102048.03;;;17.05;100.00
71764;BME280;59602;52.142;5.408;2023-10-09T08:26:00;102042.94;;;17.04;100.00
71764;BME280;59602;52.142;5.408;2023-10-09T08:28:41;102045.69;;;17.04;100.00
71764;BME280;59602;52.142;5.408;2023-10-09T08:31:13;102046.84;;;17.06;100.00
71764;BME280;59602;52.142;5.408;2023-10-09T08:34:01;102056.66;;;17.07;100.00
71764;BME280;59602;52.142;5.408;2023-10-09T08:36:31;102061.38;;;17.10;100.00
71764;BME280;59602;52.142;5.408;2023-10-09T08:39:03;102088.06;;;17.13;100.00
71764;BME280;59602;52.142;5.408;2023-10-09T08:41:52;102103.75;;;17.16;100.00
71764;BME280;59602;52.142;5.408;2023-10-09T08:44:20;102095.50;;;17.27;100.00
71764;BME280;59602;52.142;5.408;2023-10-09T08:46:53;102093.16;;;17.33;100.00
71764;BME280;59602;52.142;5.408;2023-10-09T08:49:20;102092.75;;;17.38;100.00
71764;BME280;59602;52.142;5.408;2023-10-09T08:51:48;102092.34;;;17.43;100.00
71764;BME280;59602;52.142;5.408;2023-10-09T08:54:15;102094.69;;;17.48;100.00
71764;BME280;59602;52.142;5.408;2023-10-09T08:56:42;102104.91;;;17.51;100.00
71764;BME280;59602;52.142;5.408;2023-10-09T08:59:18;102105.69;;;17.55;100.00
71764;BME280;59602;52.142;5.408;2023-10-09T09:01:46;102104.09;;;17.58;100.00
71764;BME280;59602;52.142;5.408;2023-10-09T09:04:37;102111.53;;;17.61;100.00
71764;BME280;59602;52.142;5.408;2023-10-09T09:07:06;102103.28;;;17.64;100.00
71764;BME280;59602;52.142;5.408;2023-10-09T09:09:55;102107.59;;;17.69;100.00
71764;BME280;59602;52.142;5.408;2023-10-09T09:12:24;102107.97;;;17.75;100.00
71764;BME280;59602;52.142;5.408;2023-10-09T09:14:50;102105.22;;;17.78;100.00
71764;BME280;59602;52.142;5.408;2023-10-09T09:17:23;102104.81;;;17.83;100.00
71764;BME280;59602;52.142;5.408;2023-10-09T09:19:53;102126.84;;;17.87;100.00
71764;BME280;59602;52.142;5.408;2023-10-09T09:22:20;102127.19;;;17.93;100.00
71764;BME280;59602;52.142;5.408;2023-10-09T09:24:58;102121.31;;;17.98;100.00
71764;BME280;59602;52.142;5.408;2023-10-09T09:27:46;102118.13;;;18.03;100.00
71764;BME280;59602;52.142;5.408;2023-10-09T09:30:26;102131.06;;;18.10;100.00
71764;BME280;59602;52.142;5.408;2023-10-09T09:33:20;102111.38;;;18.15;100.00
71764;BME280;59602;52.142;5.408;2023-10-09T09:35:59;102122.38;;;18.18;100.00
71764;BME280;59602;52.142;5.408;2023-10-09T09:38:29;102119.25;;;18.20;100.00
71764;BME280;59602;52.142;5.408;2023-10-09T09:41:08;102119.97;;;18.24;100.00
71764;BME280;59602;52.142;5.408;2023-10-09T09:43:36;102125.88;;;18.30;100.00
71764;BME280;59602;52.142;5.408;2023-10-09T09:46:07;102123.50;;;18.32;100.00
71764;BME280;59602;52.142;5.408;2023-10-09T09:48:39;102116.00;;;18.36;100.00
71764;BME280;59602;52.142;5.408;2023-10-09T09:51:13;102121.47;;;18.39;100.00
71764;BME280;59602;52.142;5.408;2023-10-09T09:53:42;102119.50;;;18.43;100.00
71764;BME280;59602;52.142;5.408;2023-10-09T09:56:09;102124.22;;;18.46;100.00
71764;BME280;59602;52.142;5.408;2023-10-09T09:58:45;102131.66;;;18.50;100.00
71764;BME280;59602;52.142;5.408;2023-10-09T10:01:23;102125.75;;;18.51;100.00
71764;BME280;59602;52.142;5.408;2023-10-09T10:03:58;102126.50;;;18.55;100.00
71764;BME280;59602;52.142;5.408;2023-10-09T10:06:28;102127.69;;;18.58;100.00
71764;BME280;59602;52.142;5.408;2023-10-09T10:08:55;102126.88;;;18.61;100.00
71764;BME280;59602;52.142;5.408;2023-10-09T10:11:42;102122.13;;;18.65;100.00
71764;BME280;59602;52.142;5.408;2023-10-09T10:14:12;102127.63;;;18.65;99.76
71764;BME280;59602;52.142;5.408;2023-10-09T10:17:06;102121.69;;;18.70;100.00
71764;BME280;59602;52.142;5.408;2023-10-09T10:22:44;102123.22;;;18.75;100.00
71764;BME280;59602;52.142;5.408;2023-10-09T10:28:22;102127.16;;;18.81;99.92
71764;BME280;59602;52.142;5.408;2023-10-09T10:30:55;102140.53;;;18.82;99.39
71764;BME280;59602;52.142;5.408;2023-10-09T10:36:22;102149.53;;;18.90;98.63
71764;BME280;59602;52.142;5.408;2023-10-09T10:39:05;102149.91;;;18.96;99.14
71764;BME280;59602;52.142;5.408;2023-10-09T10:41:53;102138.81;;;18.99;97.75
71764;BME280;59602;52.142;5.408;2023-10-09T10:44:25;102142.34;;;19.03;97.72
71764;BME280;59602;52.142;5.408;2023-10-09T10:47:05;102145.84;;;19.07;98.04
71764;BME280;59602;52.142;5.408;2023-10-09T10:49:50;102138.75;;;19.10;97.32
71764;BME280;59602;52.142;5.408;2023-10-09T10:52:21;102136.00;;;19.10;96.87
71764;BME280;59602;52.142;5.408;2023-10-09T10:54:49;102139.13;;;19.12;97.11
71764;BME280;59602;52.142;5.408;2023-10-09T10:57:42;102138.28;;;19.15;97.07
71764;BME280;59602;52.142;5.408;2023-10-09T11:00:22;102133.16;;;19.17;96.42
71764;BME280;59602;52.142;5.408;2023-10-09T11:03:07;102136.28;;;19.19;95.96
71764;BME280;59602;52.142;5.408;2023-10-09T11:05:41;102135.91;;;19.21;95.39
71764;BME280;59602;52.142;5.408;2023-10-09T11:08:09;102147.69;;;19.25;96.14
71764;BME280;59602;52.142;5.408;2023-10-09T11:10:37;102134.28;;;19.27;94.67
71764;BME280;59602;52.142;5.408;2023-10-09T11:13:27;102127.16;;;19.29;94.35
71764;BME280;59602;52.142;5.408;2023-10-09T11:16:01;102136.59;;;19.32;93.70
71764;BME280;59602;52.142;5.408;2023-10-09T11:18:55;102136.56;;;19.36;93.68
71764;BME280;59602;52.142;5.408;2023-10-09T11:21:24;102147.16;;;19.41;93.34
71764;BME280;59602;52.142;5.408;2023-10-09T11:23:57;102139.63;;;19.45;93.24
71764;BME280;59602;52.142;5.408;2023-10-09T11:26:26;102142.75;;;19.47;92.59
71764;BME280;59602;52.142;5.408;2023-10-09T11:29:11;102142.72;;;19.50;93.36
71764;BME280;59602;52.142;5.408;2023-10-09T11:32:18;102150.53;;;19.56;92.46
71764;BME280;59602;52.142;5.408;2023-10-09T11:34:46;102146.19;;;19.58;92.16
71764;BME280;59602;52.142;5.408;2023-10-09T11:37:22;102149.31;;;19.60;92.19
71764;BME280;59602;52.142;5.408;2023-10-09T11:40:05;102135.47;;;19.64;91.18
71764;BME280;59602;52.142;5.408;2023-10-09T11:42:49;102137.44;;;19.67;91.85
71764;BME280;59602;52.142;5.408;2023-10-09T11:45:23;102125.59;;;19.70;91.63
71764;BME280;59602;52.142;5.408;2023-10-09T11:47:52;102142.13;;;19.74;91.23
71764;BME280;59602;52.142;5.408;2023-10-09T11:50:46;102134.56;;;19.78;91.19
71764;BME280;59602;52.142;5.408;2023-10-09T11:53:43;102140.88;;;19.78;90.65
71764;BME280;59602;52.142;5.408;2023-10-09T11:56:12;102144.00;;;19.80;90.88
71764;BME280;59602;52.142;5.408;2023-10-09T11:58:43;102142.06;;;19.77;91.18
71764;BME280;59602;52.142;5.408;2023-10-09T12:01:11;102138.16;;;19.75;90.78
71764;BME280;59602;52.142;5.408;2023-10-09T12:03:48;102135.78;;;19.73;91.24
71764;BME280;59602;52.142;5.408;2023-10-09T12:06:19;102135.78;;;19.73;91.84
71764;BME280;59602;52.142;5.408;2023-10-09T12:08:49;102121.59;;;19.75;91.06
71764;BME280;59602;52.142;5.408;2023-10-09T12:11:16;102130.25;;;19.77;90.91
71764;BME280;59602;52.142;5.408;2023-10-09T12:13:55;102122.72;;;19.81;91.29
71764;BME280;59602;52.142;5.408;2023-10-09T12:16:24;102126.56;;;19.87;91.25
71764;BME280;59602;52.142;5.408;2023-10-09T12:18:59;102121.03;;;19.87;91.08
71764;BME280;59602;52.142;5.408;2023-10-09T12:21:28;102112.81;;;19.83;90.56
71764;BME280;59602;52.142;5.408;2023-10-09T12:23:56;102114.38;;;19.84;90.50
71764;BME280;59602;52.142;5.408;2023-10-09T12:26:27;102117.56;;;19.83;90.76
71764;BME280;59602;52.142;5.408;2023-10-09T12:28:54;102120.34;;;19.79;90.51
71764;BME280;59602;52.142;5.408;2023-10-09T12:31:21;102116.91;;;19.72;89.82
71764;BME280;59602;52.142;5.408;2023-10-09T12:33:51;102116.53;;;19.66;90.71
71764;BME280;59602;52.142;5.408;2023-10-09T12:36:18;102116.22;;;19.60;91.36
71764;BME280;59602;52.142;5.408;2023-10-09T12:38:47;102113.09;;;19.58;91.34
71764;BME280;59602;52.142;5.408;2023-10-09T12:41:20;102117.78;;;19.58;91.82
71764;BME280;59602;52.142;5.408;2023-10-09T12:44:12;102121.75;;;19.57;91.97
71764;BME280;59602;52.142;5.408;2023-10-09T12:47:15;102123.38;;;19.54;91.71
71764;BME280;59602;52.142;5.408;2023-10-09T12:49:58;102131.66;;;19.54;92.42
71764;BME280;59602;52.142;5.408;2023-10-09T12:52:28;102127.31;;;19.53;92.11
71764;BME280;59602;52.142;5.408;2023-10-09T12:54:56;102132.41;;;19.55;92.10
71764;BME280;59602;52.142;5.408;2023-10-09T12:57:23;102129.66;;;19.55;91.78
71764;BME280;59602;52.142;5.408;2023-10-09T12:59:53;102121.78;;;19.53;92.12
71764;BME280;59602;52.142;5.408;2023-10-09T13:06:01;102138.78;;;19.48;92.03
71764;BME280;59602;52.142;5.408;2023-10-09T13:08:36;102137.25;;;19.47;92.16
71764;BME280;59602;52.142;5.408;2023-10-09T13:11:54;102142.00;;;19.43;91.93
71764;BME280;59602;52.142;5.408;2023-10-09T13:14:55;102138.88;;;19.41;92.05
71764;BME280;59602;52.142;5.408;2023-10-09T13:20:16;102142.03;;;19.39;92.32
71764;BME280;59602;52.142;5.408;2023-10-09T13:22:43;102135.34;;;19.40;92.55
71764;BME280;59602;52.142;5.408;2023-10-09T13:25:12;102130.59;;;19.41;93.38
71764;BME280;59602;52.142;5.408;2023-10-09T13:28:00;102138.09;;;19.40;92.76
71764;BME280;59602;52.142;5.408;2023-10-09T13:30:31;102140.84;;;19.40;92.89
71764;BME280;59602;52.142;5.408;2023-10-09T13:33:06;102139.28;;;19.39;93.22
71764;BME280;59602;52.142;5.408;2023-10-09T13:35:32;102135.75;;;19.39;92.29
71764;BME280;59602;52.142;5.408;2023-10-09T13:38:04;102132.59;;;19.37;92.82
71764;BME280;59602;52.142;5.408;2023-10-09T13:40:36;102140.09;;;19.36;92.08
71764;BME280;59602;52.142;5.408;2023-10-09T13:43:03;102133.44;;;19.34;92.24
71764;BME280;59602;52.142;5.408;2023-10-09T13:45:38;102129.88;;;19.33;91.92
71764;BME280;59602;52.142;5.408;2023-10-09T13:48:05;102122.41;;;19.30;91.86